createdAt,value
2023-04-19T00:02:22.532Z,62.11
2023-04-19T00:04:49.447Z,62.30
2023-04-19T00:07:18.508Z,62.75
2023-04-19T00:09:45.203Z,62.92
2023-04-19T00:12:11.905Z,62.89
2023-04-19T00:14:38.530Z,61.85
2023-04-19T00:17:05.231Z,62.57
2023-04-19T00:19:31.918Z,62.30
2023-04-19T00:21:58.606Z,63.01
2023-04-19T00:24:25.234Z,63.04
2023-04-19T00:26:51.904Z,62.69
2023-04-19T00:29:18.538Z,64.12
2023-04-19T00:31:45.186Z,63.99
2023-04-19T00:34:11.789Z,62.68
2023-04-19T00:36:38.434Z,63.63
2023-04-19T00:39:05.049Z,63.43
2023-04-19T00:41:31.691Z,63.08
2023-04-19T00:43:58.318Z,62.20
2023-04-19T00:46:26.001Z,62.57
2023-04-19T00:48:53.028Z,64.40
2023-04-19T00:51:20.368Z,64.66
2023-04-19T00:53:47.052Z,63.42
2023-04-19T00:56:14.834Z,63.80
2023-04-19T00:58:41.660Z,63.38
2023-04-19T01:01:08.372Z,63.73
2023-04-19T01:03:36.747Z,62.73
2023-04-19T01:06:03.731Z,63.37
2023-04-19T01:08:30.889Z,64.23
2023-04-19T01:10:57.525Z,63.96
2023-04-19T01:13:24.471Z,63.77
2023-04-19T01:15:51.754Z,63.50
2023-04-19T01:18:19.519Z,65.47
2023-04-19T01:20:46.290Z,65.75
2023-04-19T01:23:13.014Z,65.59
2023-04-19T01:25:39.649Z,64.67
2023-04-19T01:28:06.609Z,64.59
2023-04-19T01:30:34.422Z,66.47
2023-04-19T01:33:01.053Z,65.75
2023-04-19T01:35:27.724Z,64.33
2023-04-19T01:37:56.356Z,64.20
2023-04-19T01:40:25.678Z,65.16
2023-04-19T01:42:53.252Z,64.30
2023-04-19T01:45:20.312Z,64.33
2023-04-19T01:47:47.024Z,63.27
2023-04-19T01:50:13.761Z,65.18
2023-04-19T01:52:40.448Z,65.82
2023-04-19T01:55:07.303Z,66.37
2023-04-19T01:57:33.946Z,66.74
2023-04-19T02:00:01.970Z,66.65
2023-04-19T02:02:28.590Z,66.69
2023-04-19T02:04:55.305Z,67.48
2023-04-19T02:07:21.898Z,67.67
2023-04-19T02:09:48.534Z,70.56
2023-04-19T02:12:15.693Z,70.46
2023-04-19T02:14:42.296Z,70.07
2023-04-19T02:17:09.110Z,68.84
2023-04-19T02:19:36.343Z,70.67
2023-04-19T02:22:03.245Z,71.56
2023-04-19T02:24:29.859Z,70.18
2023-04-19T02:26:56.515Z,71.66
2023-04-19T02:29:23.227Z,70.24
2023-04-19T02:31:50.606Z,68.43
2023-04-19T02:34:17.926Z,67.97
2023-04-19T02:36:44.703Z,67.62
2023-04-19T02:39:11.349Z,67.70
2023-04-19T02:41:38.032Z,66.36
2023-04-19T02:44:04.879Z,66.89
2023-04-19T02:46:31.685Z,67.80
2023-04-19T02:49:01.129Z,67.17
2023-04-19T02:51:27.829Z,67.41
2023-04-19T02:53:54.423Z,67.76
2023-04-19T02:56:21.064Z,68.22
2023-04-19T02:58:47.709Z,68.87
2023-04-19T03:01:14.436Z,68.29
2023-04-19T03:03:41.305Z,67.73
2023-04-19T03:06:08.407Z,67.21
2023-04-19T03:08:35.014Z,66.48
2023-04-19T03:11:02.193Z,66.28
2023-04-19T03:13:28.747Z,66.10
2023-04-19T03:15:55.883Z,65.13
2023-04-19T03:18:22.555Z,66.64
2023-04-19T03:20:49.171Z,66.30
2023-04-19T03:23:15.878Z,66.66
2023-04-19T03:25:42.569Z,67.94
2023-04-19T03:28:09.194Z,67.55
2023-04-19T03:30:35.799Z,66.92
2023-04-19T03:33:02.477Z,66.89
2023-04-19T03:35:30.923Z,68.38
2023-04-19T03:37:57.550Z,67.08
2023-04-19T03:40:24.534Z,66.37
2023-04-19T03:42:51.131Z,66.40
2023-04-19T03:45:17.787Z,66.70
2023-04-19T03:47:44.395Z,66.37
2023-04-19T03:50:10.997Z,66.33
2023-04-19T03:52:37.706Z,66.09
2023-04-19T03:55:04.770Z,67.03
2023-04-19T03:57:31.386Z,70.00
2023-04-19T03:59:57.974Z,68.77
2023-04-19T04:02:24.790Z,68.17
2023-04-19T04:04:55.257Z,68.34
2023-04-19T04:07:23.280Z,67.65
2023-04-19T04:09:50.285Z,67.46
2023-04-19T04:12:16.963Z,66.63
2023-04-19T04:14:43.651Z,66.54
2023-04-19T04:17:10.274Z,65.99
2023-04-19T04:19:36.900Z,67.15
2023-04-19T04:22:04.043Z,66.88
2023-04-19T04:24:32.920Z,66.69
2023-04-19T04:27:00.986Z,67.35
2023-04-19T04:29:29.056Z,66.90
2023-04-19T04:31:56.908Z,68.51
2023-04-19T04:34:24.681Z,68.05
2023-04-19T04:36:51.338Z,67.29
2023-04-19T04:39:18.346Z,67.03
2023-04-19T04:41:45.063Z,66.52
2023-04-19T04:44:23.318Z,66.50
2023-04-19T04:46:50.306Z,65.79
2023-04-19T04:49:17.020Z,65.25
2023-04-19T04:51:43.857Z,67.39
2023-04-19T04:54:10.502Z,66.56
2023-04-19T04:56:37.132Z,67.17
2023-04-19T04:59:03.815Z,67.23
2023-04-19T05:01:30.638Z,67.54
2023-04-19T05:03:57.293Z,67.44
2023-04-19T05:06:24.011Z,66.47
2023-04-19T05:08:50.701Z,66.01
2023-04-19T05:11:17.425Z,65.94
2023-04-19T05:13:44.163Z,65.82
2023-04-19T05:16:10.886Z,65.58
2023-04-19T05:18:37.605Z,66.83
2023-04-19T05:21:04.451Z,66.72
2023-04-19T05:23:31.069Z,67.03
2023-04-19T05:25:57.648Z,65.58
2023-04-19T05:28:24.265Z,66.97
2023-04-19T05:30:52.366Z,67.06
2023-04-19T05:33:18.970Z,68.44
2023-04-19T05:35:45.562Z,66.96
2023-04-19T05:38:12.126Z,66.93
2023-04-19T05:40:40.135Z,67.10
2023-04-19T05:43:06.888Z,67.97
2023-04-19T05:45:33.546Z,68.00
2023-04-19T05:48:00.278Z,69.02
2023-04-19T05:50:26.885Z,69.19
2023-04-19T05:52:53.473Z,69.14
2023-04-19T05:55:20.265Z,68.80
2023-04-19T05:57:46.965Z,68.34
2023-04-19T06:00:14.130Z,67.88
2023-04-19T06:02:41.064Z,67.84
2023-04-19T06:05:10.758Z,67.84
2023-04-19T06:07:43.331Z,66.90
2023-04-19T06:10:18.453Z,67.39
2023-04-19T06:12:45.034Z,68.49
2023-04-19T06:15:11.982Z,68.39
2023-04-19T06:17:38.691Z,68.50
2023-04-19T06:20:07.841Z,66.83
2023-04-19T06:22:34.529Z,67.70
2023-04-19T06:25:02.249Z,67.83
2023-04-19T06:27:28.942Z,66.94
2023-04-19T06:29:55.558Z,67.85
2023-04-19T06:32:22.205Z,69.79
2023-04-19T06:34:48.872Z,69.29
2023-04-19T06:37:15.506Z,68.23
2023-04-19T06:39:42.151Z,68.07
2023-04-19T06:42:08.775Z,68.72
2023-04-19T06:44:35.386Z,68.38
2023-04-19T06:47:02.331Z,66.91
2023-04-19T06:49:29.160Z,68.98
2023-04-19T06:51:56.281Z,68.08
2023-04-19T06:54:22.928Z,69.93
2023-04-19T06:56:50.279Z,70.05
2023-04-19T06:59:20.991Z,70.54
2023-04-19T07:01:48.282Z,68.02
2023-04-19T07:04:16.029Z,67.61
2023-04-19T07:06:42.952Z,68.21
2023-04-19T07:09:09.598Z,68.77
2023-04-19T07:11:36.227Z,67.64
2023-04-19T07:14:02.882Z,67.01
2023-04-19T07:16:29.790Z,67.62
2023-04-19T07:18:57.260Z,68.95
2023-04-19T07:21:26.752Z,67.95
2023-04-19T07:23:53.447Z,67.07
2023-04-19T07:26:20.432Z,68.39
2023-04-19T07:28:47.155Z,68.48
2023-04-19T07:31:18.085Z,68.02
2023-04-19T07:33:45.187Z,67.47
2023-04-19T07:36:11.921Z,67.36
2023-04-19T07:38:38.714Z,65.67
2023-04-19T07:41:06.039Z,66.90
2023-04-19T07:43:32.749Z,66.21
2023-04-19T07:45:59.453Z,67.08
2023-04-19T07:48:28.105Z,66.70
2023-04-19T07:50:55.652Z,65.18
2023-04-19T07:53:22.271Z,65.65
2023-04-19T07:55:48.888Z,65.30
2023-04-19T07:58:15.656Z,66.50
2023-04-19T08:00:42.343Z,67.82
2023-04-19T08:03:09.160Z,68.22
2023-04-19T08:05:36.162Z,66.77
2023-04-19T08:08:02.928Z,66.73
2023-04-19T08:10:30.794Z,66.69
2023-04-19T08:13:05.769Z,65.53
2023-04-19T08:18:05.175Z,64.45
2023-04-19T08:20:32.704Z,64.05
2023-04-19T08:23:04.553Z,63.37
2023-04-19T08:25:40.188Z,64.58
2023-04-19T08:28:06.902Z,65.83
2023-04-19T08:30:33.571Z,65.57
2023-04-19T08:33:02.346Z,65.83
2023-04-19T08:35:29.006Z,65.95
2023-04-19T08:37:55.696Z,66.13
2023-04-19T08:40:22.311Z,65.40
2023-04-19T08:42:49.004Z,66.06
2023-04-19T08:45:27.755Z,65.30
2023-04-19T08:48:01.417Z,64.84
2023-04-19T08:53:12.116Z,64.27
2023-04-19T08:56:06.850Z,62.89
2023-04-19T09:01:06.315Z,62.17
2023-04-19T09:03:40.821Z,63.97
2023-04-19T09:06:12.473Z,63.16
2023-04-19T09:08:40.694Z,61.41
2023-04-19T09:11:07.562Z,60.10
2023-04-19T09:13:36.896Z,59.72
2023-04-19T09:16:04.942Z,61.77
2023-04-19T09:18:33.183Z,63.15
2023-04-19T09:21:02.495Z,61.56
2023-04-19T09:23:29.200Z,60.43
2023-04-19T09:26:22.041Z,60.66
2023-04-19T09:29:02.186Z,60.74
2023-04-19T09:31:47.952Z,60.56
2023-04-19T09:34:18.067Z,59.90
2023-04-19T09:36:45.346Z,58.71
2023-04-19T09:39:12.347Z,61.01
2023-04-19T09:41:54.964Z,61.36
2023-04-19T09:44:52.923Z,61.09
2023-04-19T09:47:30.033Z,59.61
2023-04-19T09:50:21.929Z,58.86
2023-04-19T09:52:52.426Z,59.08
2023-04-19T09:57:49.560Z,59.51
2023-04-19T10:00:16.450Z,58.12
2023-04-19T10:02:45.240Z,58.21
2023-04-19T10:05:20.744Z,58.48
2023-04-19T10:07:50.174Z,57.61
2023-04-19T10:10:20.989Z,57.47
2023-04-19T10:13:11.496Z,57.68
2023-04-19T10:15:50.055Z,57.04
2023-04-19T10:18:18.581Z,58.62
2023-04-19T10:20:55.390Z,57.57
2023-04-19T10:23:23.093Z,57.81
2023-04-19T10:25:59.616Z,57.38
2023-04-19T10:28:30.080Z,56.92
2023-04-19T10:31:05.042Z,57.31
2023-04-19T10:33:35.619Z,57.88
2023-04-19T10:36:02.782Z,57.60
2023-04-19T10:38:44.512Z,57.33
2023-04-19T10:41:17.357Z,56.83
2023-04-19T10:43:47.388Z,55.34
2023-04-19T10:46:13.993Z,55.32
2023-04-19T10:48:53.562Z,53.27
2023-04-19T10:51:23.147Z,53.24
2023-04-19T10:53:55.681Z,53.18
2023-04-19T10:57:02.464Z,53.19
2023-04-19T10:59:33.591Z,54.75
2023-04-19T11:02:02.524Z,55.88
2023-04-19T11:04:32.442Z,54.59
2023-04-19T11:07:02.648Z,54.89
2023-04-19T11:09:34.790Z,56.10
2023-04-19T11:12:08.627Z,56.08
2023-04-19T11:14:46.494Z,55.22
2023-04-19T11:17:18.880Z,53.35
2023-04-19T11:19:56.106Z,52.94
2023-04-19T11:22:37.325Z,54.65
2023-04-19T11:25:07.163Z,53.37
2023-04-19T11:27:34.805Z,53.07
2023-04-19T11:30:20.233Z,52.72
2023-04-19T11:32:52.906Z,54.36
2023-04-19T11:35:21.794Z,53.23
2023-04-19T11:37:49.044Z,53.12
2023-04-19T11:40:20.897Z,53.39
2023-04-19T11:42:53.403Z,51.03
2023-04-19T11:45:31.654Z,49.92
2023-04-19T11:48:02.323Z,50.09
2023-04-19T11:50:33.550Z,48.62
2023-04-19T11:53:09.505Z,46.72
2023-04-19T11:55:36.433Z,46.52
2023-04-19T11:58:03.111Z,47.10
2023-04-19T12:00:30.672Z,47.41
2023-04-19T12:02:57.897Z,48.17
2023-04-19T12:05:24.783Z,48.69
2023-04-19T12:08:06.819Z,46.48
2023-04-19T12:10:34.463Z,47.68
2023-04-19T12:13:02.257Z,49.00
2023-04-19T12:15:42.916Z,50.13
2023-04-19T12:18:09.842Z,48.51
2023-04-19T12:20:38.093Z,48.16
2023-04-19T12:23:04.932Z,48.24
2023-04-19T12:25:33.350Z,45.91
2023-04-19T12:28:02.243Z,46.02
2023-04-19T12:30:28.957Z,49.08
2023-04-19T12:32:56.117Z,48.61
2023-04-19T12:35:24.420Z,48.34
2023-04-19T12:37:53.132Z,47.98
2023-04-19T12:40:20.088Z,47.63
2023-04-19T12:42:46.965Z,47.61
2023-04-19T12:45:14.332Z,48.88
2023-04-19T12:47:42.114Z,48.63
2023-04-19T12:50:09.266Z,48.02
2023-04-19T12:52:36.320Z,47.06
2023-04-19T12:55:03.270Z,45.98
2023-04-19T12:57:30.251Z,48.42
2023-04-19T12:59:56.915Z,48.75
2023-04-19T13:02:23.792Z,47.28
2023-04-19T13:04:51.245Z,48.41
2023-04-19T13:07:17.948Z,48.95
2023-04-19T13:09:44.549Z,49.06
2023-04-19T13:12:11.207Z,49.29
2023-04-19T13:14:37.821Z,49.10
2023-04-19T13:17:04.499Z,50.72
2023-04-19T13:19:31.208Z,50.92
2023-04-19T13:21:57.872Z,52.95
2023-04-19T13:24:24.425Z,54.07
2023-04-19T13:26:51.077Z,52.96
2023-04-19T13:29:17.738Z,52.73
2023-04-19T13:31:44.426Z,52.58
2023-04-19T13:34:11.169Z,51.99
2023-04-19T13:36:37.900Z,51.56
2023-04-19T13:39:05.900Z,50.30
2023-04-19T13:41:34.316Z,49.89
2023-04-19T13:44:00.958Z,49.78
2023-04-19T13:46:27.764Z,50.21
2023-04-19T13:48:54.463Z,50.28
2023-04-19T13:51:21.177Z,50.20
2023-04-19T13:53:47.848Z,50.66
2023-04-19T13:56:15.197Z,50.96
2023-04-19T13:58:41.857Z,49.02
2023-04-19T14:01:08.875Z,49.93
2023-04-19T14:03:35.848Z,48.68
2023-04-19T14:06:02.606Z,50.18
2023-04-19T14:08:29.195Z,49.94
2023-04-19T14:10:55.862Z,50.50
2023-04-19T14:13:22.675Z,49.69
2023-04-19T14:15:49.314Z,48.09
2023-04-19T14:18:16.141Z,47.96
2023-04-19T14:20:42.904Z,49.26
2023-04-19T14:23:09.623Z,50.39
2023-04-19T14:25:36.897Z,48.38
2023-04-19T14:28:03.639Z,50.61
2023-04-19T14:30:31.190Z,52.32
2023-04-19T14:32:58.199Z,51.17
2023-04-19T14:35:24.940Z,53.76
2023-04-19T14:37:51.557Z,53.21
2023-04-19T14:40:19.986Z,53.17
2023-04-19T14:42:46.624Z,52.25
2023-04-19T14:45:13.201Z,49.88
2023-04-19T14:47:40.058Z,49.78
2023-04-19T14:50:07.258Z,49.48
2023-04-19T14:52:34.665Z,48.79
2023-04-19T14:55:01.332Z,49.13
2023-04-19T14:57:28.144Z,48.95
2023-04-19T14:59:58.815Z,49.54
2023-04-19T15:02:25.825Z,49.24
2023-04-19T15:04:53.452Z,51.50
2023-04-19T15:07:20.552Z,48.48
2023-04-19T15:09:47.195Z,48.95
2023-04-19T15:12:13.877Z,47.71
2023-04-19T15:14:40.634Z,47.36
2023-04-19T15:17:07.255Z,48.23
2023-04-19T15:19:33.897Z,49.56
2023-04-19T15:22:00.501Z,51.46
2023-04-19T15:24:27.184Z,51.14
2023-04-19T15:26:53.881Z,51.20
2023-04-19T15:29:20.638Z,50.37
2023-04-19T15:31:47.309Z,50.51
2023-04-19T15:34:14.055Z,50.19
2023-04-19T15:36:41.046Z,51.01
2023-04-19T15:39:07.881Z,53.16
2023-04-19T15:41:34.597Z,53.37
2023-04-19T15:44:01.191Z,53.09
2023-04-19T15:46:27.852Z,50.43
2023-04-19T15:48:54.411Z,51.07
2023-04-19T15:51:21.003Z,51.02
2023-04-19T15:53:47.664Z,52.15
2023-04-19T15:56:14.279Z,51.21
2023-04-19T15:58:41.360Z,50.04
2023-04-19T16:01:11.269Z,50.81
2023-04-19T16:03:38.111Z,52.93
2023-04-19T16:06:04.982Z,59.08
2023-04-19T16:08:31.617Z,59.87
2023-04-19T16:10:58.270Z,60.11
2023-04-19T16:13:25.023Z,57.33
2023-04-19T16:15:51.658Z,55.11
2023-04-19T16:18:18.326Z,53.54
2023-04-19T16:20:45.008Z,54.22
2023-04-19T16:23:12.094Z,54.67
2023-04-19T16:25:38.734Z,54.38
2023-04-19T16:28:06.020Z,53.13
2023-04-19T16:30:32.705Z,52.84
2023-04-19T16:32:59.447Z,52.08
2023-04-19T16:35:26.847Z,51.81
2023-04-19T16:37:55.880Z,51.61
2023-04-19T16:40:24.234Z,52.23
2023-04-19T16:42:51.023Z,52.71
2023-04-19T16:45:18.057Z,52.71
2023-04-19T16:47:46.193Z,53.55
2023-04-19T16:50:13.711Z,53.88
2023-04-19T16:52:40.520Z,54.42
2023-04-19T16:55:07.889Z,54.87
2023-04-19T16:57:34.551Z,56.92
2023-04-19T17:00:02.246Z,57.67
2023-04-19T17:02:29.091Z,58.07
2023-04-19T17:04:56.372Z,57.93
2023-04-19T17:07:23.055Z,56.71
2023-04-19T17:09:49.784Z,56.40
2023-04-19T17:12:16.381Z,56.71
2023-04-19T17:14:42.953Z,56.64
2023-04-19T17:17:09.614Z,56.25
2023-04-19T17:19:36.739Z,57.75
2023-04-19T17:22:05.200Z,58.25
2023-04-19T17:24:33.623Z,56.71
2023-04-19T17:27:00.899Z,55.47
2023-04-19T17:29:27.606Z,54.54
2023-04-19T17:31:54.491Z,54.85
2023-04-19T17:34:21.165Z,54.97
2023-04-19T17:36:47.782Z,55.01
2023-04-19T17:39:14.441Z,55.40
2023-04-19T17:41:41.722Z,54.18
2023-04-19T17:44:08.337Z,53.32
2023-04-19T17:46:34.927Z,54.07
2023-04-19T17:49:02.183Z,54.86
2023-04-19T17:51:28.720Z,54.54
2023-04-19T17:53:55.424Z,54.07
2023-04-19T17:56:22.443Z,53.50
2023-04-19T17:58:49.145Z,54.66
2023-04-19T18:01:16.344Z,54.24
2023-04-19T18:03:43.212Z,55.26
2023-04-19T18:06:13.076Z,55.69
2023-04-19T18:08:39.658Z,54.04
2023-04-19T18:11:07.030Z,54.35
2023-04-19T18:13:33.593Z,56.41
2023-04-19T18:16:00.590Z,55.02
2023-04-19T18:18:27.193Z,56.05
2023-04-19T18:20:53.887Z,56.91
2023-04-19T18:23:20.493Z,56.76
2023-04-19T18:26:01.003Z,56.25
2023-04-19T18:28:28.167Z,54.84
2023-04-19T18:30:54.907Z,54.78
2023-04-19T18:33:21.589Z,54.40
2023-04-19T18:35:48.163Z,55.31
2023-04-19T18:38:14.783Z,55.11
2023-04-19T18:40:41.377Z,55.13
2023-04-19T18:43:07.972Z,54.77
2023-04-19T18:45:34.600Z,54.71
2023-04-19T18:48:02.360Z,54.37
2023-04-19T18:50:30.548Z,53.90
2023-04-19T18:52:57.188Z,54.85
2023-04-19T18:55:23.982Z,54.68
2023-04-19T18:57:50.917Z,54.17
2023-04-19T19:00:19.918Z,53.68
2023-04-19T19:02:47.008Z,53.62
2023-04-19T19:05:15.809Z,53.88
2023-04-19T19:07:43.092Z,55.04
2023-04-19T19:12:40.772Z,54.73
2023-04-19T19:15:08.266Z,55.82
2023-04-19T19:17:35.035Z,55.23
2023-04-19T19:20:02.234Z,55.19
2023-04-19T19:22:29.264Z,56.09
2023-04-19T19:24:56.576Z,55.72
2023-04-19T19:27:23.264Z,56.86
2023-04-19T19:29:50.008Z,57.84
2023-04-19T19:32:16.786Z,57.99
2023-04-19T19:34:54.423Z,58.18
2023-04-19T19:37:23.331Z,58.45
2023-04-19T19:39:50.104Z,57.64
2023-04-19T19:42:17.611Z,56.27
2023-04-19T19:44:44.590Z,57.38
2023-04-19T19:47:12.000Z,58.13
2023-04-19T19:52:08.325Z,58.28
2023-04-19T19:54:35.071Z,57.73
2023-04-19T19:59:34.839Z,56.82
2023-04-19T20:02:03.437Z,58.48
2023-04-19T20:04:31.090Z,57.31
2023-04-19T20:09:29.922Z,57.38
2023-04-19T20:11:56.779Z,57.04
2023-04-19T20:14:24.494Z,56.46
2023-04-19T20:16:52.185Z,56.03
2023-04-19T20:19:19.565Z,56.41
2023-04-19T20:21:47.262Z,54.56
2023-04-19T20:24:13.962Z,54.71
2023-04-19T20:26:40.610Z,54.92
2023-04-19T20:29:07.906Z,56.20
2023-04-19T20:31:34.568Z,57.19
2023-04-19T20:34:01.240Z,56.87
2023-04-19T20:36:28.425Z,57.75
2023-04-19T20:38:56.962Z,57.67
2023-04-19T20:41:23.663Z,56.28
2023-04-19T20:43:50.515Z,54.78
2023-04-19T20:46:17.546Z,55.39
2023-04-19T20:48:44.172Z,55.35
2023-04-19T20:51:12.786Z,55.16
2023-04-19T20:53:39.507Z,55.06
2023-04-19T20:56:06.214Z,55.18
2023-04-19T20:58:33.824Z,54.14
2023-04-19T21:01:00.945Z,55.42
2023-04-19T21:03:27.761Z,56.23
2023-04-19T21:05:54.494Z,57.39
2023-04-19T21:08:23.766Z,59.98
2023-04-19T21:10:50.465Z,59.94
2023-04-19T21:13:17.096Z,56.99
2023-04-19T21:15:43.718Z,57.51
2023-04-19T21:18:10.319Z,57.22
2023-04-19T21:20:37.830Z,57.30
2023-04-19T21:23:04.524Z,56.16
2023-04-19T21:25:31.222Z,55.87
2023-04-19T21:27:57.842Z,54.33
2023-04-19T21:30:25.712Z,53.83
2023-04-19T21:32:52.989Z,55.52
2023-04-19T21:35:19.944Z,56.70
2023-04-19T21:37:46.591Z,54.88
2023-04-19T21:40:13.305Z,54.96
2023-04-19T21:42:39.973Z,56.13
2023-04-19T21:45:07.269Z,55.97
2023-04-19T21:47:33.951Z,56.25
2023-04-19T21:50:00.641Z,55.74
2023-04-19T21:52:27.309Z,55.27
2023-04-19T21:54:53.854Z,55.04
2023-04-19T21:57:24.519Z,55.35
2023-04-19T21:59:51.378Z,54.60
2023-04-19T22:02:18.066Z,53.77
2023-04-19T22:04:45.795Z,53.57
2023-04-19T22:07:12.668Z,51.50
2023-04-19T22:09:39.661Z,52.02
2023-04-19T22:12:06.558Z,51.95
2023-04-19T22:14:33.189Z,50.97
2023-04-19T22:17:02.797Z,52.31
2023-04-19T22:19:29.718Z,53.08
2023-04-19T22:21:56.432Z,52.06
2023-04-19T22:24:23.328Z,52.74
2023-04-19T22:26:51.039Z,52.38
2023-04-19T22:29:18.094Z,52.40
2023-04-19T22:31:45.034Z,52.21
2023-04-19T22:34:11.637Z,52.05
2023-04-19T22:36:38.227Z,51.04
2023-04-19T22:39:05.093Z,49.84
2023-04-19T22:41:33.266Z,51.28
2023-04-19T22:44:00.346Z,50.74
2023-04-19T22:46:27.398Z,51.69
2023-04-19T22:48:56.046Z,51.19
2023-04-19T22:51:24.327Z,50.90
2023-04-19T22:53:51.028Z,52.59
2023-04-19T22:56:17.977Z,53.53
2023-04-19T22:58:44.638Z,53.85
2023-04-19T23:01:11.474Z,53.36
2023-04-19T23:03:38.149Z,52.30
2023-04-19T23:06:04.965Z,54.04
2023-04-19T23:08:33.399Z,54.86
2023-04-19T23:11:00.112Z,54.16
2023-04-19T23:13:26.767Z,54.28
2023-04-19T23:15:54.486Z,52.91
2023-04-19T23:18:21.836Z,53.39
2023-04-19T23:20:48.426Z,52.94
2023-04-19T23:23:15.120Z,53.93
2023-04-19T23:25:41.990Z,54.21
2023-04-19T23:28:10.347Z,55.72
2023-04-19T23:30:38.555Z,56.08
2023-04-19T23:33:05.297Z,54.97
2023-04-19T23:35:32.357Z,54.37
2023-04-19T23:37:59.311Z,54.59
2023-04-19T23:40:25.884Z,55.08
2023-04-19T23:42:52.494Z,55.12
2023-04-19T23:45:19.205Z,54.58
2023-04-19T23:47:46.041Z,54.63
2023-04-19T23:50:12.725Z,54.54
2023-04-19T23:52:39.307Z,55.07
2023-04-19T23:55:06.850Z,54.76
2023-04-19T23:57:36.656Z,54.68
